Time;durP1;ratioP1;P1;durP2;ratioP2;P2;SDS_P1;SDS_P2;PMS_P1;PMS_P2;Temp;Humidity;BMP_temperature;BMP_pressure;BME280_temperature;BME280_humidity;BME280_pressure;Samples;Min_cycle;Max_cycle;Signal;HPM_P1;HPM_P2
2022/11/03 00:01:06;;;;;;;560.33;524.80;;;6.60;38.80;;;;;;4974556;28;20487;-71
2022/11/03 00:03:31;;;;;;;714.10;665.60;;;6.60;39.40;;;;;;4973065;28;20428;-71
2022/11/03 00:06:06;;;;;;;636.83;599.67;;;6.60;39.50;;;;;;4974526;28;20209;-71
2022/11/03 00:08:32;;;;;;;613.73;580.90;;;6.60;39.40;;;;;;4974352;28;20216;-71
2022/11/03 00:11:12;;;;;;;596.63;560.07;;;6.50;39.30;;;;;;4974158;28;20952;-71
2022/11/03 00:13:42;;;;;;;482.50;453.63;;;6.50;39.80;;;;;;4974461;28;20443;-70
2022/11/03 00:16:10;;;;;;;597.50;563.77;;;6.40;39.30;;;;;;4974400;28;20421;-72
2022/11/03 00:18:36;;;;;;;699.47;656.73;;;6.30;39.20;;;;;;4974046;28;20973;-71
2022/11/03 00:21:12;;;;;;;723.83;679.53;;;6.30;40.50;;;;;;4974409;28;20536;-71
2022/11/03 00:23:42;;;;;;;598.63;564.30;;;6.20;40.30;;;;;;4973973;28;20910;-71
2022/11/03 00:26:12;;;;;;;657.63;616.77;;;6.20;41.20;;;;;;4974122;28;20456;-71
2022/11/03 00:28:39;;;;;;;755.27;703.27;;;6.20;41.60;;;;;;4974110;28;20416;-71
2022/11/03 00:31:08;;;;;;;840.77;787.47;;;6.20;41.60;;;;;;4972724;28;20452;-71
2022/11/03 00:33:34;;;;;;;617.97;584.90;;;6.10;40.80;;;;;;4973761;28;20437;-71
2022/11/03 00:36:00;;;;;;;627.17;587.80;;;6.20;40.30;;;;;;4974026;28;20409;-72
2022/11/03 00:38:27;;;;;;;593.80;560.23;;;6.10;41.10;;;;;;4973824;28;20413;-71
2022/11/03 00:41:01;;;;;;;727.33;683.23;;;6.10;39.60;;;;;;4973753;28;20491;-71
2022/11/03 00:43:29;;;;;;;582.87;547.03;;;6.00;40.80;;;;;;4973470;28;20424;-72
2022/11/03 00:45:55;;;;;;;758.93;712.63;;;6.00;41.00;;;;;;4973803;28;20971;-71
2022/11/03 00:48:31;;;;;;;428.50;402.47;;;5.90;41.00;;;;;;4973778;28;20412;-71
2022/11/03 00:51:11;;;;;;;528.17;496.43;;;6.00;41.40;;;;;;4973738;28;20494;-71
2022/11/03 00:53:49;;;;;;;576.70;539.20;;;5.90;41.10;;;;;;4973458;28;20420;-72
2022/11/03 00:56:21;;;;;;;688.87;648.27;;;5.90;41.10;;;;;;4973682;28;20762;-71
2022/11/03 00:58:48;;;;;;;638.37;600.70;;;5.90;41.90;;;;;;4973562;28;20409;-72
2022/11/03 01:01:16;;;;;;;606.57;574.27;;;6.00;41.10;;;;;;4972147;28;20443;-71
2022/11/03 01:06:48;;;;;;;748.10;700.03;;;5.90;41.00;;;;;;4973246;28;20499;-71
2022/11/03 01:06:49;;;;;;;687.53;645.50;;;5.90;41.30;;;;;;4973472;28;20468;-72
2022/11/03 01:09:16;;;;;;;571.70;539.70;;;5.80;41.00;;;;;;4973177;28;20432;-72
2022/11/03 01:11:48;;;;;;;622.60;589.20;;;5.70;40.80;;;;;;4973241;28;20413;-72
2022/11/03 01:14:15;;;;;;;633.73;595.50;;;5.60;41.30;;;;;;4973501;28;20444;-72
2022/11/03 01:16:41;;;;;;;547.97;512.93;;;5.60;41.20;;;;;;4973508;28;20419;-73
2022/11/03 01:19:07;;;;;;;759.37;711.23;;;5.50;41.50;;;;;;4973245;28;20433;-72
2022/11/03 01:21:33;;;;;;;570.27;538.63;;;5.50;42.00;;;;;;4973352;28;20504;-72
2022/11/03 01:24:03;;;;;;;692.47;650.97;;;5.50;42.20;;;;;;4972853;28;20432;-72
2022/11/03 01:26:30;;;;;;;490.57;463.70;;;5.50;43.60;;;;;;4973261;28;20535;-74
2022/11/03 01:28:57;;;;;;;667.73;627.90;;;5.40;42.30;;;;;;4973224;28;20424;-72
2022/11/03 01:31:23;;;;;;;689.17;645.67;;;5.40;42.80;;;;;;4972970;28;20832;-73
2022/11/03 01:33:51;;;;;;;591.60;551.13;;;5.30;43.20;;;;;;4973058;28;20416;-73
2022/11/03 01:36:17;;;;;;;590.03;553.80;;;5.40;44.40;;;;;;4973145;28;20436;-74
2022/11/03 01:38:43;;;;;;;695.10;649.97;;;5.40;42.20;;;;;;4973157;28;20420;-71
2022/11/03 01:41:15;;;;;;;605.97;570.03;;;5.30;42.90;;;;;;4973060;28;20612;-71
2022/11/03 01:43:41;;;;;;;673.53;629.53;;;5.30;42.90;;;;;;4971403;28;20472;-72
2022/11/03 01:46:25;;;;;;;530.73;497.97;;;5.30;42.70;;;;;;4973228;28;20467;-71
2022/11/03 01:48:58;;;;;;;535.83;500.20;;;5.20;42.90;;;;;;4973389;28;20448;-71
2022/11/03 01:51:25;;;;;;;366.50;344.97;;;5.20;43.30;;;;;;4973263;28;20436;-72
2022/11/03 01:53:52;;;;;;;685.60;641.43;;;5.20;43.80;;;;;;4973114;28;20447;-70
2022/11/03 01:56:19;;;;;;;626.80;590.70;;;5.20;42.10;;;;;;4972851;28;20434;-72
2022/11/03 01:58:48;;;;;;;437.93;410.20;;;5.20;43.40;;;;;;4973108;28;20180;-71
2022/11/03 02:01:14;;;;;;;555.43;522.70;;;5.10;43.70;;;;;;4973233;28;20436;-73
2022/11/03 02:03:51;;;;;;;643.40;604.33;;;5.10;43.30;;;;;;4972973;28;20422;-71
2022/11/03 02:06:22;;;;;;;406.97;381.10;;;5.00;43.60;;;;;;4973003;28;20204;-71
2022/11/03 02:09:01;;;;;;;573.17;536.27;;;5.10;44.10;;;;;;4973041;28;20610;-71
2022/11/03 02:14:14;;;;;;;592.50;555.67;;;5.00;43.70;;;;;;4976676;28;20507;-71
2022/11/03 02:17:08;;;;;;;347.50;325.43;;;5.00;43.80;;;;;;4976638;28;20424;-72
2022/11/03 02:19:42;;;;;;;617.63;580.57;;;5.00;44.40;;;;;;4975082;28;21025;-71
2022/11/03 02:22:37;;;;;;;442.47;415.40;;;4.90;44.90;;;;;;4976465;28;20420;-71
2022/11/03 02:25:36;;;;;;;623.63;581.10;;;5.00;44.40;;;;;;4976857;28;20463;-72
2022/11/03 02:28:03;;;;;;;682.87;641.00;;;5.10;45.30;;;;;;4976606;28;20425;-71
2022/11/03 02:30:40;;;;;;;552.33;520.90;;;5.10;45.30;;;;;;4976110;28;20452;-71
2022/11/03 02:33:34;;;;;;;613.00;575.33;;;5.10;44.30;;;;;;4976611;28;20438;-71
2022/11/03 02:36:21;;;;;;;497.67;465.33;;;5.00;43.50;;;;;;4976907;28;20457;-70
2022/11/03 02:38:55;;;;;;;580.15;544.55;;;5.00;44.60;;;;;;4976230;28;21085;-71
2022/11/03 02:41:21;;;;;;;667.80;626.67;;;4.90;44.10;;;;;;4976358;28;20274;-71
2022/11/03 02:43:48;;;;;;;571.70;536.70;;;4.90;44.10;;;;;;4976513;28;20416;-72
2022/11/03 02:46:15;;;;;;;579.73;542.77;;;4.90;44.40;;;;;;4976437;28;20848;-71
2022/11/03 02:48:40;;;;;;;503.83;473.07;;;4.90;44.70;;;;;;4976389;28;20835;-71
2022/11/03 02:51:06;;;;;;;529.87;497.37;;;4.90;45.20;;;;;;4974731;28;20469;-71
2022/11/03 02:53:41;;;;;;;628.83;586.13;;;4.90;45.00;;;;;;4975853;28;20173;-71
2022/11/03 02:56:14;;;;;;;583.70;550.53;;;4.90;44.60;;;;;;4975075;28;20186;-72
2022/11/03 02:58:59;;;;;;;647.10;604.37;;;4.90;44.80;;;;;;4976049;28;20416;-72
2022/11/03 03:01:49;;;;;;;620.40;576.90;;;4.90;44.10;;;;;;4976231;28;20454;-71
2022/11/03 03:04:27;;;;;;;544.10;506.85;;;4.90;44.50;;;;;;4975507;28;20264;-72
2022/11/03 03:07:00;;;;;;;397.57;374.63;;;5.00;45.80;;;;;;4976033;28;20567;-71
2022/11/03 03:09:34;;;;;;;647.17;605.80;;;5.00;44.20;;;;;;4975904;28;20407;-72
2022/11/03 03:12:01;;;;;;;340.10;315.90;;;4.90;44.00;;;;;;4975637;28;20655;-72
2022/11/03 03:14:37;;;;;;;605.27;565.83;;;5.00;45.30;;;;;;4975480;28;20515;-70
2022/11/03 03:17:14;;;;;;;548.30;516.20;;;5.10;44.80;;;;;;4975639;28;20419;-71
2022/11/03 03:19:55;;;;;;;640.53;600.77;;;5.10;44.40;;;;;;4975508;28;20428;-71
2022/11/03 03:22:45;;;;;;;607.22;568.15;;;5.20;44.30;;;;;;4973933;28;20416;-72
2022/11/03 03:25:14;;;;;;;546.20;514.08;;;5.10;43.60;;;;;;4975071;28;20240;-71
2022/11/03 03:27:44;;;;;;;620.43;581.03;;;5.00;43.20;;;;;;4975359;28;20200;-71
2022/11/03 03:30:11;;;;;;;484.03;453.23;;;4.90;43.30;;;;;;4974064;28;20903;-71
2022/11/03 03:32:40;;;;;;;446.07;419.07;;;4.90;44.60;;;;;;4975103;28;20450;-71
2022/11/03 03:35:09;;;;;;;664.47;622.30;;;4.90;43.60;;;;;;4975224;28;20419;-71
2022/11/03 03:37:38;;;;;;;668.00;626.13;;;4.80;44.30;;;;;;4975102;28;20502;-71
2022/11/03 03:40:08;;;;;;;483.00;453.87;;;4.80;44.90;;;;;;5006466;23;20995;-72
2022/11/03 03:42:36;;;;;;;568.93;531.30;;;4.70;45.30;;;;;;5012603;28;20425;-73
2022/11/03 03:45:04;;;;;;;409.13;382.17;;;4.70;44.10;;;;;;5013998;28;20949;-72
2022/11/03 03:47:32;;;;;;;550.30;514.80;;;4.70;45.30;;;;;;5012827;28;20796;-72
2022/11/03 03:49:58;;;;;;;505.15;475.83;;;4.70;44.30;;;;;;5012162;28;20977;-72
2022/11/03 03:52:24;;;;;;;434.27;407.53;;;4.70;44.50;;;;;;5014013;28;20188;-73
2022/11/03 03:54:50;;;;;;;753.33;702.47;;;4.60;44.00;;;;;;5012438;28;20309;-75
2022/11/03 03:57:19;;;;;;;534.03;502.30;;;4.70;43.90;;;;;;5013784;28;20432;-73
2022/11/03 03:59:45;;;;;;;525.05;492.88;;;4.60;42.90;;;;;;5013709;28;20545;-73
2022/11/03 04:02:11;;;;;;;615.50;579.67;;;4.50;43.00;;;;;;5011932;28;20200;-73
2022/11/03 04:04:37;;;;;;;456.47;428.93;;;4.50;44.10;;;;;;5011917;28;20839;-73
2022/11/03 04:09:47;;;;;;;683.67;639.22;;;4.50;43.90;;;;;;5013898;28;20879;-74
2022/11/03 04:23:16;;;;;;;686.30;641.93;;;4.30;44.20;;;;;;5013018;28;20217;-74
2022/11/03 04:25:51;;;;;;;471.10;442.45;;;4.30;43.30;;;;;;5013088;28;20547;-74
2022/11/03 04:28:17;;;;;;;598.63;560.23;;;4.20;43.20;;;;;;5012040;28;20268;-74
2022/11/03 04:30:43;;;;;;;452.67;425.60;;;4.20;43.80;;;;;;5013047;28;20529;-73
2022/11/03 04:33:19;;;;;;;544.63;509.30;;;4.20;43.30;;;;;;5011503;28;20779;-74
2022/11/03 04:35:46;;;;;;;604.13;567.83;;;4.20;44.40;;;;;;5012578;28;20558;-73
2022/11/03 04:38:14;;;;;;;640.13;599.80;;;4.20;43.30;;;;;;5013530;28;20605;-74
2022/11/03 04:40:45;;;;;;;669.05;627.58;;;4.10;43.90;;;;;;5012905;28;20248;-73
2022/11/03 04:43:17;;;;;;;625.97;585.88;;;4.10;44.00;;;;;;5012700;28;20218;-73
2022/11/03 04:45:44;;;;;;;625.40;588.08;;;4.10;45.10;;;;;;5012582;28;20330;-73
2022/11/03 04:48:24;;;;;;;580.92;545.15;;;4.00;44.10;;;;;;5011521;28;20177;-73
2022/11/03 04:50:53;;;;;;;486.63;457.05;;;4.00;44.10;;;;;;5011489;28;20563;-73
2022/11/03 04:53:21;;;;;;;614.70;575.70;;;4.10;44.80;;;;;;5011219;28;20184;-73
2022/11/03 04:55:49;;;;;;;556.53;522.58;;;4.10;44.60;;;;;;5011242;28;20214;-73
2022/11/03 04:58:22;;;;;;;585.63;547.45;;;4.00;43.10;;;;;;5012722;28;20185;-73
2022/11/03 05:00:52;;;;;;;537.33;503.35;;;4.00;44.70;;;;;;5012493;28;20197;-73
2022/11/03 05:03:33;;;;;;;478.88;450.50;;;4.00;43.60;;;;;;5012232;28;20178;-73
2022/11/03 05:06:09;;;;;;;641.92;602.47;;;4.00;43.00;;;;;;5011306;28;20209;-72
2022/11/03 05:08:34;;;;;;;526.35;491.80;;;3.90;43.30;;;;;;5011473;28;20264;-73
2022/11/03 05:11:03;;;;;;;716.20;669.93;;;3.90;43.40;;;;;;5012500;28;20227;-71
2022/11/03 05:13:29;;;;;;;665.53;622.53;;;3.90;44.80;;;;;;5012133;28;20544;-71
2022/11/03 05:16:04;;;;;;;565.03;529.93;;;3.90;43.70;;;;;;5012313;28;20182;-72
2022/11/03 05:18:31;;;;;;;529.70;497.52;;;3.90;44.30;;;;;;5010881;28;20181;-72
2022/11/03 05:21:06;;;;;;;522.67;489.98;;;3.90;43.70;;;;;;5011989;28;20204;-71
2022/11/03 05:23:39;;;;;;;520.08;488.40;;;3.90;43.70;;;;;;5012106;28;20192;-72
2022/11/03 05:26:07;;;;;;;605.75;567.38;;;3.90;43.30;;;;;;5012217;28;20193;-72
2022/11/03 05:28:38;;;;;;;669.03;624.70;;;3.80;43.40;;;;;;5011383;28;20177;-72
2022/11/03 05:31:24;;;;;;;408.45;383.67;;;3.80;44.20;;;;;;5010964;28;20207;-72
2022/11/03 05:33:52;;;;;;;477.45;447.83;;;3.70;44.10;;;;;;5011923;28;20174;-72
2022/11/03 05:36:23;;;;;;;658.08;617.60;;;3.70;44.40;;;;;;5011749;28;20184;-72
2022/11/03 05:38:52;;;;;;;625.67;587.60;;;3.70;44.10;;;;;;5010879;28;20184;-72
2022/11/03 05:41:24;;;;;;;561.25;525.22;;;3.60;44.10;;;;;;5011934;28;20205;-72
2022/11/03 05:43:55;;;;;;;532.65;500.75;;;3.70;44.00;;;;;;5012389;28;20171;-72
2022/11/03 05:46:21;;;;;;;443.08;413.42;;;3.70;43.40;;;;;;5012841;28;20952;-71
2022/11/03 05:48:48;;;;;;;598.50;562.63;;;3.70;45.10;;;;;;5016082;28;20207;-72
2022/11/03 05:51:31;;;;;;;558.95;523.60;;;3.70;44.20;;;;;;5016043;28;20499;-71
2022/11/03 05:53:59;;;;;;;543.13;511.88;;;3.60;44.10;;;;;;5015255;28;20719;-72
2022/11/03 05:56:25;;;;;;;459.33;432.08;;;3.60;44.10;;;;;;5016267;28;20316;-72
2022/11/03 05:58:56;;;;;;;601.80;566.40;;;3.60;43.90;;;;;;5014604;28;20716;-71
2022/11/03 06:01:31;;;;;;;411.52;386.70;;;3.50;43.20;;;;;;5014054;28;20946;-71
2022/11/03 06:04:00;;;;;;;492.52;462.58;;;3.60;44.50;;;;;;5014578;28;20188;-72
2022/11/03 06:06:28;;;;;;;482.60;455.27;;;3.70;44.80;;;;;;5015837;28;20210;-72
2022/11/03 06:08:55;;;;;;;547.92;517.35;;;3.60;44.40;;;;;;5015424;28;20171;-72
2022/11/03 06:11:30;;;;;;;609.20;569.83;;;3.60;44.30;;;;;;5015540;28;20564;-72
2022/11/03 06:13:57;;;;;;;528.28;494.73;;;3.60;43.80;;;;;;5015591;28;20165;-72
2022/11/03 06:16:43;;;;;;;737.50;689.42;;;3.80;45.80;;;;;;5015569;28;20181;-72
2022/11/03 06:19:29;;;;;;;550.38;515.78;;;3.90;45.20;;;;;;5014340;28;20183;-72
2022/11/03 06:22:00;;;;;;;283.73;264.65;;;3.90;45.40;;;;;;5015613;28;20208;-72
2022/11/03 06:24:30;;;;;;;679.85;638.08;;;3.90;46.20;;;;;;5015429;28;20182;-72
2022/11/03 06:26:57;;;;;;;632.38;594.55;;;3.90;44.90;;;;;;5014041;28;20201;-72
2022/11/03 06:29:23;;;;;;;450.83;423.88;;;4.00;44.20;;;;;;5014125;28;20193;-72
2022/11/03 06:31:51;;;;;;;485.60;456.03;;;4.00;44.90;;;;;;5015011;28;20680;-72
2022/11/03 06:34:28;;;;;;;478.67;449.40;;;4.00;44.60;;;;;;5013896;28;20414;-71
2022/11/03 06:36:57;;;;;;;794.78;741.63;;;4.00;44.70;;;;;;5015203;28;20215;-72
2022/11/03 06:39:23;;;;;;;709.25;663.47;;;4.10;46.00;;;;;;5015247;28;20301;-71
2022/11/03 06:41:50;;;;;;;651.40;609.97;;;4.10;45.20;;;;;;5014894;28;20271;-71
2022/11/03 06:44:29;;;;;;;642.72;602.53;;;4.10;44.60;;;;;;5015181;28;20176;-71
2022/11/03 06:46:59;;;;;;;343.05;321.52;;;4.10;45.50;;;;;;5014849;28;20214;-73
2022/11/03 06:49:29;;;;;;;485.40;454.77;;;4.20;46.10;;;;;;5013837;28;20180;-73
2022/11/03 06:51:57;;;;;;;434.63;408.77;;;4.20;46.20;;;;;;5014590;28;20226;-73
2022/11/03 06:54:23;;;;;;;571.28;535.58;;;4.30;45.70;;;;;;5013803;28;20455;-72
2022/11/03 06:56:48;;;;;;;443.63;417.67;;;4.30;45.20;;;;;;5013021;28;20267;-73
2022/11/03 06:59:15;;;;;;;457.60;429.13;;;4.40;46.10;;;;;;5014886;28;20535;-72
2022/11/03 07:01:41;;;;;;;627.07;587.97;;;4.50;45.30;;;;;;5014771;28;20200;-72
2022/11/03 07:04:21;;;;;;;724.30;677.10;;;4.60;45.30;;;;;;5015007;28;20413;-72
2022/11/03 07:06:48;;;;;;;478.48;448.70;;;4.70;45.90;;;;;;5014763;28;20450;-71
2022/11/03 07:09:21;;;;;;;582.13;544.38;;;4.80;46.10;;;;;;5014703;28;20171;-71
2022/11/03 07:11:56;;;;;;;735.60;689.63;;;5.00;45.90;;;;;;5014741;28;20224;-72
2022/11/03 07:14:26;;;;;;;582.43;546.20;;;5.10;44.80;;;;;;5014713;28;20402;-71
2022/11/03 07:16:56;;;;;;;541.40;508.03;;;5.10;45.30;;;;;;5013356;28;20430;-71
2022/11/03 07:19:21;;;;;;;451.73;423.47;;;5.30;43.60;;;;;;5013178;28;20414;-72
2022/11/03 07:22:13;;;;;;;586.93;548.53;;;5.40;44.10;;;;;;5014528;28;20768;-72
2022/11/03 07:24:42;;;;;;;523.27;491.70;;;5.50;43.20;;;;;;5014482;28;20156;-72
2022/11/03 07:27:25;;;;;;;686.33;641.77;;;5.60;43.20;;;;;;5014399;28;20778;-72
2022/11/03 07:29:55;;;;;;;504.50;472.10;;;5.80;41.00;;;;;;5013006;28;20418;-72
2022/11/03 07:32:28;;;;;;;376.73;352.40;;;5.90;39.80;;;;;;5014421;28;20398;-72
2022/11/03 07:35:17;;;;;;;454.17;424.93;;;6.00;38.10;;;;;;5013301;28;20822;-72
2022/11/03 07:37:48;;;;;;;382.83;357.20;;;6.00;37.00;;;;;;5010323;28;20423;-72
2022/11/03 07:40:22;;;;;;;597.20;562.23;;;6.20;36.20;;;;;;5013935;28;20508;-72
2022/11/03 07:42:51;;;;;;;580.97;544.27;;;6.30;36.30;;;;;;5012499;28;20431;-71
2022/11/03 07:45:40;;;;;;;619.23;579.80;;;6.40;36.40;;;;;;5012541;28;20458;-71
2022/11/03 07:48:27;;;;;;;391.67;365.97;;;6.50;36.40;;;;;;5012589;28;20412;-72
2022/11/03 07:50:59;;;;;;;669.03;624.90;;;6.60;34.30;;;;;;5013859;28;20439;-71
2022/11/03 07:53:35;;;;;;;504.43;474.63;;;6.80;33.40;;;;;;5012452;28;20407;-71
2022/11/03 07:56:11;;;;;;;569.50;533.37;;;6.90;31.80;;;;;;5012482;28;20783;-72
2022/11/03 07:58:38;;;;;;;515.90;486.40;;;7.00;32.80;;;;;;5013986;28;20458;-71
2022/11/03 08:01:36;;;;;;;466.07;436.87;;;7.20;32.60;;;;;;5013751;28;20437;-71
2022/11/03 08:04:06;;;;;;;418.60;393.37;;;7.30;30.00;;;;;;5013484;28;20400;-71
2022/11/03 08:06:32;;;;;;;599.27;559.27;;;7.50;29.30;;;;;;5011176;28;20473;-71
2022/11/03 08:08:58;;;;;;;473.43;443.10;;;7.50;28.80;;;;;;5005816;28;20431;-71
2022/11/03 08:11:24;;;;;;;457.10;430.30;;;7.50;28.50;;;;;;4988893;28;20833;-72
2022/11/03 08:13:50;;;;;;;456.03;426.70;;;7.70;28.70;;;;;;4989490;28;20531;-72
2022/11/03 08:16:16;;;;;;;694.30;649.93;;;7.80;28.10;;;;;;4989703;28;20555;-72
2022/11/03 08:18:42;;;;;;;153.73;139.93;;;7.90;28.20;;;;;;4997269;28;21195;-71
2022/11/03 08:21:08;;;;;;;690.87;644.60;;;7.90;27.10;;;;;;5009393;28;20478;-71
2022/11/03 08:23:33;;;;;;;441.93;411.77;;;8.00;27.60;;;;;;5012118;28;20219;-72
2022/11/03 08:25:59;;;;;;;503.00;472.47;;;8.30;25.40;;;;;;5012819;28;20230;-74
2022/11/03 08:28:24;;;;;;;277.40;257.67;;;8.40;25.00;;;;;;5012791;28;20622;-72
2022/11/03 08:30:50;;;;;;;464.57;438.73;;;8.40;24.60;;;;;;5011416;28;20203;-71
2022/11/03 08:33:16;;;;;;;503.07;472.90;;;8.60;23.60;;;;;;5012851;28;20275;-74
2022/11/03 08:35:41;;;;;;;286.50;264.63;;;8.70;24.10;;;;;;5012731;28;20183;-72
2022/11/03 08:38:07;;;;;;;317.60;296.00;;;8.90;22.60;;;;;;5011386;28;20662;-73
2022/11/03 08:40:32;;;;;;;479.60;451.23;;;9.00;22.70;;;;;;5012526;28;20689;-73
2022/11/03 08:43:01;;;;;;;246.30;228.30;;;9.10;22.40;;;;;;5012242;28;20285;-74
2022/11/03 08:45:30;;;;;;;219.23;201.83;;;9.20;21.80;;;;;;5010915;28;20206;-73
2022/11/03 08:47:56;;;;;;;532.83;496.03;;;9.40;20.80;;;;;;5011434;28;20558;-73
2022/11/03 08:50:22;;;;;;;551.00;517.70;;;9.50;20.90;;;;;;5012459;28;20473;-74
2022/11/03 08:52:48;;;;;;;493.77;462.27;;;9.50;21.40;;;;;;5012351;28;20587;-76
2022/11/03 08:55:14;;;;;;;280.30;260.30;;;9.50;20.90;;;;;;5010863;28;20809;-72
2022/11/03 08:57:39;;;;;;;396.60;371.13;;;9.60;21.20;;;;;;5011500;28;20418;-73
2022/11/03 09:00:07;;;;;;;451.00;421.67;;;9.60;21.60;;;;;;5011206;28;20318;-71
2022/11/03 09:02:32;;;;;;;376.30;351.77;;;9.70;21.80;;;;;;5012090;28;20465;-71
2022/11/03 09:04:58;;;;;;;436.53;405.90;;;9.80;24.10;;;;;;5010940;28;20979;-76
2022/11/03 09:07:26;;;;;;;570.23;534.77;;;10.10;21.00;;;;;;5012591;28;20286;-76
2022/11/03 09:09:52;;;;;;;216.43;196.63;;;10.10;20.70;;;;;;5011230;28;20188;-70
2022/11/03 09:12:18;;;;;;;220.93;203.03;;;10.20;19.50;;;;;;5006981;28;20510;-73
2022/11/03 09:14:43;;;;;;;382.50;354.73;;;10.30;19.70;;;;;;5007059;28;20182;-73
2022/11/03 09:17:09;;;;;;;504.90;472.17;;;10.50;19.60;;;;;;5006541;28;20291;-73
2022/11/03 09:19:34;;;;;;;401.67;373.47;;;10.60;19.80;;;;;;5007879;28;20270;-72
2022/11/03 09:22:00;;;;;;;379.73;351.17;;;10.80;19.90;;;;;;5006868;28;20370;-73
2022/11/03 09:24:26;;;;;;;432.93;402.63;;;10.90;19.00;;;;;;5008115;28;20184;-74
2022/11/03 09:26:52;;;;;;;575.87;535.73;;;10.80;18.90;;;;;;5010451;28;20575;-73
2022/11/03 09:29:18;;;;;;;420.47;389.17;;;10.80;19.50;;;;;;5012218;28;20419;-73
2022/11/03 09:31:43;;;;;;;462.23;429.40;;;10.80;19.20;;;;;;5011345;28;20442;-72
2022/11/03 09:34:09;;;;;;;532.03;496.93;;;11.00;19.90;;;;;;5012052;28;20184;-71
2022/11/03 09:36:34;;;;;;;456.30;423.60;;;11.20;19.80;;;;;;5010653;28;20188;-72
2022/11/03 09:39:00;;;;;;;255.20;233.57;;;11.40;18.10;;;;;;5010477;28;20202;-73
2022/11/03 09:41:25;;;;;;;691.23;643.93;;;11.50;18.40;;;;;;5024515;23;20248;-74
2022/11/03 09:43:52;;;;;;;722.40;672.03;;;11.60;18.30;;;;;;4991188;28;20176;-73
2022/11/03 09:46:18;;;;;;;442.47;408.83;;;11.60;17.90;;;;;;4993088;28;20220;-75
2022/11/03 09:48:44;;;;;;;401.00;371.37;;;11.60;17.80;;;;;;4996714;28;20422;-73
2022/11/03 09:51:16;;;;;;;407.00;376.67;;;11.80;17.60;;;;;;5012154;28;20730;-73
2022/11/03 09:53:41;;;;;;;783.93;728.67;;;11.90;17.40;;;;;;5012095;28;20416;-73
2022/11/03 09:56:09;;;;;;;330.57;306.10;;;11.90;16.80;;;;;;5012113;28;20486;-72
2022/11/03 09:58:35;;;;;;;740.30;688.30;;;12.00;18.70;;;;;;5005811;28;20178;-72
2022/11/03 10:01:01;;;;;;;500.93;465.53;;;12.00;16.20;;;;;;4992769;28;20538;-73
2022/11/03 10:03:27;;;;;;;549.10;511.27;;;12.00;16.30;;;;;;4991979;28;20584;-73
2022/11/03 10:05:53;;;;;;;613.80;568.03;;;12.00;16.50;;;;;;4992187;28;20574;-73
2022/11/03 10:08:29;;;;;;;548.37;508.43;;;12.10;16.40;;;;;;4995168;28;20792;-73
2022/11/03 10:10:55;;;;;;;432.30;400.53;;;12.00;16.50;;;;;;5010314;28;20191;-73
2022/11/03 10:13:27;;;;;;;431.77;402.10;;;12.00;16.10;;;;;;5011402;28;20412;-73
2022/11/03 10:15:52;;;;;;;649.23;606.40;;;12.00;16.30;;;;;;5011113;28;20429;-73
2022/11/03 10:18:18;;;;;;;546.67;507.37;;;12.10;16.20;;;;;;5013633;28;20410;-73
2022/11/03 10:20:44;;;;;;;186.00;168.33;;;12.30;16.10;;;;;;5003674;28;20248;-73
2022/11/03 10:23:09;;;;;;;731.27;679.53;;;12.40;15.70;;;;;;4991861;28;20260;-73
2022/11/03 10:25:38;;;;;;;838.40;779.53;;;12.50;15.80;;;;;;4991859;28;20487;-74
2022/11/03 10:28:19;;;;;;;518.23;481.30;;;12.50;15.60;;;;;;4991957;28;20198;-73
2022/11/03 10:30:48;;;;;;;630.23;585.77;;;12.50;15.30;;;;;;4991928;28;20446;-73
2022/11/03 10:33:32;;;;;;;497.43;461.00;;;12.40;15.00;;;;;;5007164;28;20418;-73
2022/11/03 10:35:59;;;;;;;330.27;304.13;;;12.40;15.70;;;;;;5015016;28;20473;-74
2022/11/03 10:38:29;;;;;;;710.90;661.53;;;12.60;15.60;;;;;;5015250;28;20824;-74
2022/11/03 10:40:55;;;;;;;349.17;324.37;;;12.50;15.80;;;;;;5015118;28;20458;-73
2022/11/03 10:43:21;;;;;;;658.53;613.17;;;12.60;15.20;;;;;;5014619;28;20527;-74
2022/11/03 10:45:48;;;;;;;434.07;403.47;;;12.50;15.20;;;;;;5002099;28;20472;-73
2022/11/03 10:48:14;;;;;;;569.63;529.70;;;12.50;15.10;;;;;;5003019;28;20423;-74
2022/11/03 10:50:40;;;;;;;651.30;605.57;;;12.70;14.90;;;;;;5007815;28;20537;-74
2022/11/03 10:53:16;;;;;;;437.20;405.43;;;12.60;15.80;;;;;;4976134;28;20250;-74
2022/11/03 10:55:42;;;;;;;551.57;513.07;;;12.90;15.70;;;;;;4977233;28;20426;-73
2022/11/03 10:58:07;;;;;;;465.10;432.87;;;12.80;15.90;;;;;;4995214;28;20790;-73
2022/11/03 11:00:33;;;;;;;624.00;580.50;;;13.00;15.50;;;;;;4995305;28;20207;-75
2022/11/03 11:02:59;;;;;;;300.00;276.70;;;13.10;14.80;;;;;;4995511;28;20176;-75
2022/11/03 11:05:25;;;;;;;587.80;544.90;;;12.90;14.80;;;;;;5012274;28;20574;-73
2022/11/03 11:07:52;;;;;;;181.03;165.17;;;13.00;15.20;;;;;;5014843;28;20830;-74
2022/11/03 11:10:27;;;;;;;795.23;740.70;;;13.10;15.00;;;;;;5014405;28;20287;-73
2022/11/03 11:13:23;;;;;;;419.23;388.27;;;13.30;15.30;;;;;;5013152;28;20413;-73
2022/11/03 11:15:51;;;;;;;209.63;192.63;;;13.30;14.70;;;;;;5014453;28;20421;-74
2022/11/03 11:18:29;;;;;;;637.17;592.70;;;13.60;14.40;;;;;;5014558;28;20487;-73
2022/11/03 11:20:59;;;;;;;578.20;537.37;;;13.50;14.50;;;;;;5013062;28;20487;-73
2022/11/03 11:23:28;;;;;;;349.97;323.47;;;13.60;14.60;;;;;;5014325;28;20904;-73
2022/11/03 11:26:08;;;;;;;527.57;489.03;;;13.70;13.80;;;;;;5014750;28;20455;-73
2022/11/03 11:28:34;;;;;;;675.93;628.33;;;13.60;14.50;;;;;;5018584;28;20425;-73
2022/11/03 11:31:00;;;;;;;713.07;663.63;;;13.70;13.80;;;;;;5018188;28;20438;-74
2022/11/03 11:33:30;;;;;;;340.73;314.80;;;13.60;14.30;;;;;;5018393;28;20209;-74
2022/11/03 11:35:55;;;;;;;311.20;288.40;;;13.80;13.70;;;;;;5019108;28;20262;-74
2022/11/03 11:38:43;;;;;;;640.93;592.60;;;13.70;14.10;;;;;;5019339;28;20435;-74
2022/11/03 11:41:09;;;;;;;746.20;690.40;;;14.20;13.80;;;;;;5017175;28;20215;-74
2022/11/03 11:43:35;;;;;;;911.47;841.53;;;14.50;13.30;;;;;;5017107;28;20426;-73
2022/11/03 11:46:22;;;;;;;625.93;579.53;;;14.70;12.90;;;;;;5019111;28;20688;-74
2022/11/03 11:49:03;;;;;;;748.67;689.73;;;14.70;12.90;;;;;;5017968;28;20190;-74
2022/11/03 11:51:36;;;;;;;791.90;731.80;;;15.00;12.90;;;;;;5017696;28;20426;-73
2022/11/03 11:54:14;;;;;;;873.77;805.03;;;15.10;11.90;;;;;;5017037;28;20729;-73
2022/11/03 11:56:45;;;;;;;614.73;568.67;;;15.30;12.20;;;;;;5017299;28;20415;-73
2022/11/03 11:59:20;;;;;;;659.93;611.10;;;15.40;11.50;;;;;;5018119;28;20497;-73
2022/11/03 12:01:50;;;;;;;744.23;687.93;;;15.40;11.10;;;;;;5017909;28;20430;-74
2022/11/03 12:04:31;;;;;;;647.13;599.30;;;15.30;11.40;;;;;;5017917;28;20415;-73
2022/11/03 12:06:57;;;;;;;550.77;509.47;;;15.10;12.10;;;;;;5017270;28;20454;-73
2022/11/03 12:09:26;;;;;;;617.87;572.47;;;14.90;12.20;;;;;;5018154;28;20789;-73
2022/11/03 12:11:57;;;;;;;661.70;612.33;;;14.90;12.30;;;;;;5016574;28;20250;-73
2022/11/03 12:14:24;;;;;;;553.73;515.37;;;14.80;12.50;;;;;;5013659;28;20403;-72
2022/11/03 12:16:50;;;;;;;242.93;224.73;;;14.80;13.00;;;;;;5013380;28;20465;-72
2022/11/03 12:19:40;;;;;;;826.93;765.97;;;14.80;13.00;;;;;;5012664;28;20455;-73
2022/11/03 12:22:07;;;;;;;792.70;733.33;;;14.80;13.00;;;;;;5015127;28;20519;-74
2022/11/03 12:24:36;;;;;;;898.67;824.50;;;14.90;13.00;;;;;;5013952;28;20418;-76
2022/11/03 12:27:16;;;;;;;931.87;857.57;;;15.00;13.10;;;;;;5014868;28;20426;-71
2022/11/03 12:29:42;;;;;;;722.97;672.67;;;15.10;12.60;;;;;;5014068;28;20449;-75
2022/11/03 12:32:08;;;;;;;751.90;695.60;;;15.20;12.30;;;;;;5013717;28;20960;-74
2022/11/03 12:34:33;;;;;;;811.60;750.03;;;15.10;12.20;;;;;;5013390;28;20179;-73
2022/11/03 12:36:59;;;;;;;868.23;801.17;;;15.20;12.10;;;;;;5013010;28;20183;-73
2022/11/03 12:39:24;;;;;;;835.23;771.43;;;15.30;12.10;;;;;;5013101;28;20180;-72
2022/11/03 12:41:50;;;;;;;773.93;712.97;;;15.30;11.70;;;;;;5012634;28;20213;-74
2022/11/03 12:44:15;;;;;;;756.60;699.23;;;15.20;12.40;;;;;;5013311;28;20191;-73
2022/11/03 12:46:41;;;;;;;586.90;543.17;;;15.30;12.00;;;;;;5012011;28;20211;-73
2022/11/03 12:49:07;;;;;;;677.73;624.10;;;15.20;12.10;;;;;;5012857;28;20183;-73